Time;durP1;ratioP1;P1;durP2;ratioP2;P2;SDS_P1;SDS_P2;PMS_P1;PMS_P2;Temp;Humidity;BMP_temperature;BMP_pressure;BME280_temperature;BME280_humidity;BME280_pressure;Samples;Min_cycle;Max_cycle;Signal;HPM_P1;HPM_P2
2022/03/13 00:02:09;;;;;;;25.88;13.52;;;-1.10;43.10;;;;;;5034603;28;20481;-19
2022/03/13 00:04:37;;;;;;;17.15;8.60;;;-1.20;43.30;;;;;;5037159;28;20108;-19
2022/03/13 00:07:19;;;;;;;21.60;11.75;;;-1.20;43.70;;;;;;5037283;28;20033;-20
2022/03/13 00:09:49;;;;;;;39.70;20.48;;;-1.20;43.80;;;;;;5037280;28;20022;-19
2022/03/13 00:12:16;;;;;;;13.27;6.72;;;-1.30;44.00;;;;;;5036580;28;20490;-22
2022/03/13 00:14:43;;;;;;;12.07;6.43;;;-1.30;43.60;;;;;;5037352;28;20018;-20
2022/03/13 00:17:16;;;;;;;38.05;21.58;;;-1.30;43.20;;;;;;5037105;28;20025;-21
2022/03/13 00:19:43;;;;;;;13.60;7.10;;;-1.40;43.90;;;;;;5036635;28;20140;-19
2022/03/13 00:22:10;;;;;;;15.15;9.93;;;-1.40;44.80;;;;;;5035872;28;20021;-21
2022/03/13 00:24:36;;;;;;;14.82;8.15;;;-1.50;44.70;;;;;;5036929;28;20029;-19
2022/03/13 00:27:03;;;;;;;21.63;11.70;;;-1.50;43.90;;;;;;5036615;28;20040;-21
2022/03/13 00:29:30;;;;;;;21.65;12.15;;;-1.50;43.90;;;;;;5036800;28;20033;-21
2022/03/13 00:31:57;;;;;;;18.38;11.23;;;-1.50;45.50;;;;;;5036893;28;20033;-19
2022/03/13 00:34:23;;;;;;;20.33;11.93;;;-1.50;44.50;;;;;;5036276;28;20030;-21
2022/03/13 00:36:49;;;;;;;16.20;9.40;;;-1.60;44.60;;;;;;5036919;28;20028;-20
2022/03/13 00:39:16;;;;;;;20.85;9.63;;;-1.60;45.50;;;;;;5036460;28;20032;-21
2022/03/13 00:41:43;;;;;;;12.90;6.47;;;-1.60;44.60;;;;;;5036298;28;20029;-19
2022/03/13 00:44:09;;;;;;;19.80;10.50;;;-1.70;44.30;;;;;;5036449;28;20024;-21
2022/03/13 00:46:35;;;;;;;20.52;11.88;;;-1.70;44.50;;;;;;5036073;28;20025;-20
2022/03/13 00:49:02;;;;;;;12.35;7.22;;;-1.80;46.20;;;;;;5036084;28;20063;-20
2022/03/13 00:51:28;;;;;;;38.40;22.42;;;-1.70;45.10;;;;;;5036487;28;20102;-20
2022/03/13 00:53:53;;;;;;;36.30;21.30;;;-1.80;46.10;;;;;;5034939;28;20134;-20
2022/03/13 00:56:19;;;;;;;29.15;15.65;;;-1.80;46.30;;;;;;5035885;28;20091;-21
2022/03/13 00:58:45;;;;;;;15.43;7.22;;;-1.80;45.80;;;;;;5036374;28;20057;-21
2022/03/13 01:01:12;;;;;;;14.27;7.53;;;-1.80;45.30;;;;;;5036319;28;20523;-20
2022/03/13 01:03:39;;;;;;;24.17;14.98;;;-1.90;45.60;;;;;;5036308;28;20376;-21
2022/03/13 01:06:08;;;;;;;20.40;11.85;;;-1.90;45.50;;;;;;5036241;28;20096;-21
2022/03/13 01:08:34;;;;;;;18.02;10.02;;;-1.90;45.30;;;;;;5035561;28;20033;-19
2022/03/13 01:11:02;;;;;;;14.07;8.27;;;-1.90;45.50;;;;;;5036114;28;20025;-21
2022/03/13 01:13:29;;;;;;;15.30;8.55;;;-2.00;45.20;;;;;;5035684;28;20040;-19
2022/03/13 01:16:10;;;;;;;15.60;8.48;;;-2.00;44.80;;;;;;5035707;28;20030;-21
2022/03/13 01:18:41;;;;;;;11.77;6.22;;;-2.00;44.40;;;;;;5036165;28;20056;-19
2022/03/13 01:21:07;;;;;;;12.52;6.28;;;-2.10;44.50;;;;;;5035639;28;20045;-20
2022/03/13 01:23:33;;;;;;;14.38;7.93;;;-2.10;44.70;;;;;;5035892;28;20056;-21
2022/03/13 01:26:21;;;;;;;24.77;11.95;;;-2.10;44.60;;;;;;5035586;28;20036;-19
2022/03/13 01:28:50;;;;;;;31.77;18.90;;;-2.10;44.30;;;;;;5036020;28;20080;-21
2022/03/13 01:31:21;;;;;;;11.23;6.38;;;-2.20;46.10;;;;;;5035408;28;20075;-21
2022/03/13 01:33:47;;;;;;;15.77;8.50;;;-2.20;45.00;;;;;;5035752;28;20100;-21
2022/03/13 01:36:13;;;;;;;40.78;22.65;;;-2.30;45.80;;;;;;5035216;28;20026;-20
2022/03/13 01:38:39;;;;;;;22.48;11.40;;;-2.20;49.10;;;;;;5035625;28;20022;-21
2022/03/13 01:41:07;;;;;;;30.77;16.63;;;-2.30;47.80;;;;;;5035609;28;20029;-21
2022/03/13 01:43:34;;;;;;;32.85;18.10;;;-2.30;50.00;;;;;;5033921;28;20079;-20
2022/03/13 01:46:01;;;;;;;46.45;24.63;;;-2.30;48.70;;;;;;5035182;28;20030;-21
2022/03/13 01:48:29;;;;;;;15.90;8.93;;;-2.30;48.50;;;;;;5034942;28;20025;-21
2022/03/13 01:50:56;;;;;;;49.22;27.20;;;-2.30;47.60;;;;;;5035053;28;20026;-19
2022/03/13 01:53:23;;;;;;;59.97;32.80;;;-2.30;50.00;;;;;;5035402;28;20021;-20
2022/03/13 01:55:54;;;;;;;25.75;12.25;;;-2.30;51.10;;;;;;5035334;28;20029;-21
2022/03/13 01:58:20;;;;;;;19.80;9.02;;;-2.40;49.40;;;;;;5034583;28;20093;-22
2022/03/13 02:00:46;;;;;;;18.55;10.65;;;-2.30;47.70;;;;;;5035294;28;20033;-21
2022/03/13 02:03:15;;;;;;;25.05;15.23;;;-2.40;47.30;;;;;;5034888;28;20386;-19
2022/03/13 02:05:42;;;;;;;16.05;8.40;;;-2.40;47.40;;;;;;5034792;28;20017;-21
2022/03/13 02:08:20;;;;;;;15.40;8.48;;;-2.40;46.70;;;;;;5034887;28;20117;-20
2022/03/13 02:10:46;;;;;;;20.85;11.68;;;-2.40;46.10;;;;;;5035254;28;20481;-19
2022/03/13 02:13:18;;;;;;;26.00;14.65;;;-2.40;46.70;;;;;;5034583;28;20036;-20
2022/03/13 02:15:44;;;;;;;37.58;21.05;;;-2.40;46.20;;;;;;5034799;28;20021;-20
2022/03/13 02:18:11;;;;;;;16.67;9.38;;;-2.50;48.20;;;;;;5034855;28;20116;-20
2022/03/13 02:20:45;;;;;;;28.15;16.08;;;-2.50;47.90;;;;;;5033120;28;20056;-21
2022/03/13 02:23:19;;;;;;;;;;;-2.50;46.90;;;;;;5034976;28;20020;-18
2022/03/13 02:25:50;;;;;;;44.50;24.35;;;-2.60;48.00;;;;;;5034194;28;19905;-19
2022/03/13 02:28:20;;;;;;;49.45;26.88;;;-2.60;48.50;;;;;;5032822;28;20033;-20
2022/03/13 02:30:47;;;;;;;29.60;17.90;;;-2.60;49.60;;;;;;5034827;28;20439;-21
2022/03/13 02:33:18;;;;;;;25.77;12.73;;;-2.60;48.60;;;;;;5034608;28;20025;-20
2022/03/13 02:35:51;;;;;;;18.38;9.25;;;-2.60;47.60;;;;;;5033093;28;20021;-21
2022/03/13 02:38:18;;;;;;;15.85;7.28;;;-2.70;47.50;;;;;;5032845;28;20041;-19
2022/03/13 02:40:44;;;;;;;16.45;7.75;;;-2.70;47.50;;;;;;5034112;28;20060;-21
2022/03/13 02:43:10;;;;;;;28.15;13.50;;;-2.70;47.00;;;;;;5034877;28;20025;-21
2022/03/13 02:45:38;;;;;;;11.95;6.53;;;-2.70;47.40;;;;;;5034393;28;20033;-21
2022/03/13 02:48:07;;;;;;;27.05;17.08;;;-2.70;46.80;;;;;;5034189;28;20064;-19
2022/03/13 02:50:34;;;;;;;28.40;16.23;;;-2.80;46.70;;;;;;5033738;28;20034;-19
2022/03/13 02:53:00;;;;;;;70.88;36.92;;;-2.80;49.10;;;;;;5034214;28;20030;-21
2022/03/13 02:55:32;;;;;;;36.65;19.05;;;-2.80;53.00;;;;;;5034920;28;20061;-20
2022/03/13 02:57:59;;;;;;;23.20;11.55;;;-2.90;50.90;;;;;;5033701;28;20481;-19
2022/03/13 03:00:43;;;;;;;17.13;9.10;;;-2.90;49.60;;;;;;5034739;28;20045;-21
2022/03/13 03:03:11;;;;;;;;;;;-2.90;47.90;;;;;;5034156;28;20107;-18
2022/03/13 03:05:37;;;;;;;40.42;21.80;;;-3.00;49.10;;;;;;5033709;28;19905;-20
2022/03/13 03:08:04;;;;;;;26.60;15.30;;;-3.00;48.70;;;;;;5033595;28;20025;-21
2022/03/13 03:10:32;;;;;;;23.27;11.63;;;-3.00;49.20;;;;;;5033461;28;20021;-20
2022/03/13 03:12:58;;;;;;;26.95;15.45;;;-3.00;48.70;;;;;;5033739;28;20106;-20
2022/03/13 03:15:26;;;;;;;24.75;12.75;;;-3.00;49.00;;;;;;5033850;28;20033;-19
2022/03/13 03:17:53;;;;;;;31.02;18.70;;;-3.00;49.30;;;;;;5033620;28;20386;-21
2022/03/13 03:20:20;;;;;;;35.40;19.05;;;-3.10;49.00;;;;;;5033172;28;20425;-21
2022/03/13 03:22:47;;;;;;;34.50;18.60;;;-3.10;50.80;;;;;;5033306;28;20109;-21
2022/03/13 03:25:13;;;;;;;15.18;8.23;;;-3.10;49.70;;;;;;5033405;28;20037;-20
2022/03/13 03:27:40;;;;;;;16.90;7.57;;;-3.10;48.70;;;;;;5033499;28;20026;-19
2022/03/13 03:30:07;;;;;;;27.60;15.85;;;-3.10;48.00;;;;;;5033451;28;20060;-21
2022/03/13 03:32:33;;;;;;;33.28;18.33;;;-3.20;48.90;;;;;;5032996;28;20029;-21
2022/03/13 03:34:59;;;;;;;30.05;15.63;;;-3.20;49.30;;;;;;5033522;28;20084;-21
2022/03/13 03:37:26;;;;;;;18.35;8.15;;;-3.20;48.80;;;;;;5032251;28;20378;-19
2022/03/13 03:39:52;;;;;;;17.08;10.10;;;-3.30;48.10;;;;;;5033468;28;20100;-21
2022/03/13 03:42:18;;;;;;;15.40;8.13;;;-3.30;48.20;;;;;;5033098;28;20434;-21
2022/03/13 03:44:44;;;;;;;11.07;6.45;;;-3.30;48.70;;;;;;5033365;28;20071;-19
2022/03/13 03:47:10;;;;;;;12.20;6.50;;;-3.30;48.50;;;;;;5033119;28;20037;-20
2022/03/13 03:49:37;;;;;;;18.00;8.82;;;-3.40;48.10;;;;;;5033092;28;20120;-20
2022/03/13 03:52:04;;;;;;;16.13;8.38;;;-3.40;47.80;;;;;;5033032;28;20585;-20
2022/03/13 03:54:30;;;;;;;27.67;13.80;;;-3.40;48.00;;;;;;5032767;28;20516;-21
2022/03/13 03:56:56;;;;;;;14.02;7.47;;;-3.40;48.90;;;;;;5033287;28;20118;-21
2022/03/13 03:59:23;;;;;;;14.50;7.47;;;-3.50;48.80;;;;;;5033303;28;20061;-21
2022/03/13 04:01:49;;;;;;;28.25;15.00;;;-3.50;48.50;;;;;;5032988;28;20028;-20
2022/03/13 04:04:17;;;;;;;23.42;14.05;;;-3.50;48.20;;;;;;5032740;28;20408;-22
2022/03/13 04:06:44;;;;;;;33.05;18.90;;;-3.50;49.20;;;;;;5032858;28;20018;-21
2022/03/13 04:09:11;;;;;;;19.33;12.10;;;-3.50;49.30;;;;;;5033199;28;20056;-22
2022/03/13 04:11:40;;;;;;;36.65;19.85;;;-3.50;49.10;;;;;;5032865;28;20092;-20
2022/03/13 04:14:06;;;;;;;15.25;8.18;;;-3.50;49.20;;;;;;5032828;28;20037;-20
2022/03/13 04:16:32;;;;;;;21.38;12.43;;;-3.60;48.40;;;;;;5032643;28;20037;-21
2022/03/13 04:18:58;;;;;;;26.27;12.32;;;-3.60;48.70;;;;;;5032894;28;20127;-22
2022/03/13 04:21:24;;;;;;;14.80;6.97;;;-3.60;48.80;;;;;;5032839;28;20028;-20
2022/03/13 04:23:51;;;;;;;29.63;16.05;;;-3.70;48.40;;;;;;5032797;28;20025;-21
2022/03/13 04:26:17;;;;;;;20.55;9.43;;;-3.70;48.60;;;;;;5032950;28;20025;-22
2022/03/13 04:28:44;;;;;;;29.40;12.05;;;-3.70;49.80;;;;;;5032652;28;20034;-21
2022/03/13 04:31:13;;;;;;;20.25;10.68;;;-3.70;49.10;;;;;;5033003;28;20026;-21
2022/03/13 04:33:40;;;;;;;14.80;7.57;;;-3.80;49.10;;;;;;5032664;28;20464;-21
2022/03/13 04:36:13;;;;;;;26.02;15.07;;;-3.80;49.00;;;;;;5032639;28;20032;-21
2022/03/13 04:38:41;;;;;;;15.45;7.18;;;-3.80;48.80;;;;;;5033011;28;20029;-22
2022/03/13 04:41:07;;;;;;;23.30;12.90;;;-3.80;48.80;;;;;;5032778;28;20496;-21
2022/03/13 04:43:33;;;;;;;26.33;13.30;;;-3.80;48.40;;;;;;5032352;28;20037;-21
2022/03/13 04:45:59;;;;;;;23.38;12.68;;;-3.90;48.40;;;;;;5031750;28;20108;-22
2022/03/13 04:48:26;;;;;;;22.60;13.10;;;-3.90;49.00;;;;;;5034208;28;20417;-19
2022/03/13 04:50:52;;;;;;;22.48;12.25;;;-3.90;49.00;;;;;;5036227;28;20022;-22
2022/03/13 04:53:18;;;;;;;18.02;8.85;;;-3.90;48.60;;;;;;5036571;28;20033;-22
2022/03/13 04:55:44;;;;;;;19.02;9.68;;;-3.90;49.60;;;;;;5036177;28;20021;-21
2022/03/13 04:58:10;;;;;;;14.00;6.90;;;-4.00;49.20;;;;;;5036046;28;20026;-21
2022/03/13 05:00:38;;;;;;;22.95;11.80;;;-4.00;49.70;;;;;;5036397;28;20021;-20
2022/03/13 05:03:07;;;;;;;20.90;9.82;;;-4.00;51.40;;;;;;5036579;28;20038;-21
2022/03/13 05:05:34;;;;;;;18.05;9.60;;;-4.00;50.20;;;;;;5036245;28;20014;-19
2022/03/13 05:08:05;;;;;;;24.67;11.68;;;-4.00;49.50;;;;;;5035865;28;20507;-22
2022/03/13 05:10:39;;;;;;;20.90;9.57;;;-4.00;48.90;;;;;;5035979;28;20021;-22
2022/03/13 05:13:07;;;;;;;18.08;8.45;;;-4.00;51.30;;;;;;5036015;28;20030;-20
2022/03/13 05:15:34;;;;;;;12.10;6.00;;;-4.10;50.20;;;;;;5036368;28;20033;-21
2022/03/13 05:18:01;;;;;;;14.90;6.80;;;-4.10;49.20;;;;;;5035684;28;20116;-21
2022/03/13 05:20:29;;;;;;;20.73;11.13;;;-4.10;49.00;;;;;;5035445;28;20138;-20
2022/03/13 05:22:55;;;;;;;15.45;8.25;;;-4.10;49.20;;;;;;5036237;28;20014;-21
2022/03/13 05:25:25;;;;;;;17.02;7.82;;;-4.10;48.70;;;;;;5035599;28;20034;-21
2022/03/13 05:27:51;;;;;;;13.05;6.53;;;-4.10;49.10;;;;;;5035689;28;20121;-21
2022/03/13 05:30:20;;;;;;;26.88;12.95;;;-4.10;48.80;;;;;;5035356;28;20021;-22
2022/03/13 05:32:47;;;;;;;21.67;12.23;;;-4.20;48.80;;;;;;5035893;28;20032;-20
2022/03/13 05:35:14;;;;;;;22.45;11.52;;;-4.20;49.10;;;;;;5035303;28;20424;-20
2022/03/13 05:37:40;;;;;;;20.15;11.48;;;-4.20;49.20;;;;;;5035428;28;20045;-20
2022/03/13 05:40:07;;;;;;;18.45;11.50;;;-4.20;49.40;;;;;;5035327;28;20068;-20
2022/03/13 05:42:33;;;;;;;10.30;5.40;;;-4.20;49.60;;;;;;5035325;28;20029;-21
2022/03/13 05:45:00;;;;;;;15.15;6.80;;;-4.20;49.70;;;;;;5035534;28;20108;-20
2022/03/13 05:47:26;;;;;;;37.42;17.67;;;-4.20;49.40;;;;;;5035273;28;20028;-21
2022/03/13 05:49:52;;;;;;;55.58;27.58;;;-4.20;49.70;;;;;;5036008;28;20025;-21
2022/03/13 05:52:18;;;;;;;26.30;13.73;;;-4.20;50.70;;;;;;5034930;28;20037;-21
2022/03/13 05:54:44;;;;;;;50.95;25.48;;;-4.20;50.60;;;;;;5035043;28;20034;-21
2022/03/13 05:57:11;;;;;;;16.25;8.30;;;-4.20;50.80;;;;;;5035321;28;20022;-21
2022/03/13 05:59:38;;;;;;;37.92;18.60;;;-4.10;50.00;;;;;;5033975;28;20061;-21
2022/03/13 06:02:06;;;;;;;38.33;19.25;;;-4.10;51.10;;;;;;5035211;28;20056;-22
2022/03/13 06:04:35;;;;;;;24.85;12.40;;;-4.00;51.60;;;;;;5034687;28;20064;-21
2022/03/13 06:07:03;;;;;;;15.18;7.18;;;-3.90;51.20;;;;;;5034771;28;20473;-21
2022/03/13 06:09:29;;;;;;;43.10;20.60;;;-3.80;50.30;;;;;;5035052;28;20033;-21
2022/03/13 06:11:55;;;;;;;12.98;7.10;;;-3.70;52.30;;;;;;5034708;28;20036;-22
2022/03/13 06:14:22;;;;;;;16.42;8.02;;;-3.50;50.20;;;;;;5034586;28;20022;-21
2022/03/13 06:16:48;;;;;;;23.60;11.07;;;-3.40;50.20;;;;;;5035091;28;20550;-20
2022/03/13 06:19:14;;;;;;;16.73;9.02;;;-3.30;49.60;;;;;;5034349;28;20038;-20
2022/03/13 06:21:43;;;;;;;25.80;13.27;;;-3.10;50.00;;;;;;5034842;28;20028;-21
2022/03/13 06:24:09;;;;;;;26.60;12.45;;;-3.00;49.40;;;;;;5034823;28;20032;-19
2022/03/13 06:26:36;;;;;;;27.75;14.38;;;-2.80;50.20;;;;;;5034253;28;20034;-20
2022/03/13 06:29:04;;;;;;;31.77;14.50;;;-2.60;50.00;;;;;;5034162;28;20050;-20
2022/03/13 06:31:30;;;;;;;14.70;7.45;;;-2.40;49.70;;;;;;5034558;28;20026;-21
2022/03/13 06:33:56;;;;;;;12.57;5.82;;;-2.20;48.80;;;;;;5035005;28;20488;-21
2022/03/13 06:36:22;;;;;;;16.95;8.48;;;-2.00;48.00;;;;;;5034653;28;20446;-20
2022/03/13 06:38:48;;;;;;;20.58;11.10;;;-1.80;47.70;;;;;;5034663;28;20033;-20
2022/03/13 06:41:17;;;;;;;16.10;7.88;;;-1.70;47.90;;;;;;5034185;28;20030;-20
2022/03/13 06:43:43;;;;;;;28.73;14.85;;;-1.50;48.00;;;;;;5034023;28;20061;-20
2022/03/13 06:46:09;;;;;;;16.45;7.78;;;-1.30;48.50;;;;;;5034077;28;20068;-21
2022/03/13 06:48:36;;;;;;;26.45;13.05;;;-1.10;47.60;;;;;;5033734;28;20536;-19
2022/03/13 06:51:02;;;;;;;42.03;20.73;;;-0.90;47.80;;;;;;5034307;28;20075;-20
2022/03/13 06:53:29;;;;;;;18.38;9.02;;;-0.70;47.70;;;;;;5033925;28;20057;-19
2022/03/13 06:56:02;;;;;;;39.10;20.45;;;-0.50;47.30;;;;;;5033906;28;20037;-20
2022/03/13 06:58:28;;;;;;;25.65;12.00;;;-0.30;49.10;;;;;;5032316;28;20024;-21
2022/03/13 07:00:54;;;;;;;17.90;9.18;;;-0.10;47.50;;;;;;5034411;28;20473;-21
2022/03/13 07:03:20;;;;;;;17.98;9.43;;;0.00;47.50;;;;;;5033773;28;20061;-21
2022/03/13 07:05:46;;;;;;;18.20;9.23;;;0.10;47.10;;;;;;5033736;28;20025;-21
2022/03/13 07:08:14;;;;;;;26.27;13.10;;;0.30;47.20;;;;;;5033402;28;20029;-19
2022/03/13 07:10:40;;;;;;;21.10;11.10;;;0.50;47.70;;;;;;5033486;28;20032;-21
2022/03/13 07:13:06;;;;;;;12.90;6.00;;;0.80;47.40;;;;;;5033606;28;20017;-20
2022/03/13 07:15:32;;;;;;;26.63;14.77;;;0.90;46.80;;;;;;5033588;28;20029;-21
2022/03/13 07:17:59;;;;;;;19.25;10.35;;;1.10;46.90;;;;;;5033850;28;20026;-22
2022/03/13 07:20:25;;;;;;;26.10;14.70;;;1.20;46.70;;;;;;5033233;28;20129;-20
2022/03/13 07:22:51;;;;;;;21.17;11.18;;;1.40;46.80;;;;;;5033477;28;20505;-19
2022/03/13 07:25:17;;;;;;;16.27;9.25;;;1.50;46.70;;;;;;5033219;28;20030;-22
2022/03/13 07:27:44;;;;;;;17.45;8.20;;;1.60;46.60;;;;;;5033506;28;20096;-19
2022/03/13 07:30:12;;;;;;;12.48;6.38;;;1.80;46.60;;;;;;5033327;28;20022;-21
2022/03/13 07:32:40;;;;;;;16.30;8.02;;;1.90;46.70;;;;;;5033293;28;20520;-21
2022/03/13 07:35:08;;;;;;;15.48;7.40;;;2.00;46.90;;;;;;5033580;28;20100;-21
2022/03/13 07:37:34;;;;;;;23.70;12.15;;;2.10;46.70;;;;;;5033548;28;20026;-20
2022/03/13 07:40:01;;;;;;;10.63;5.97;;;2.30;46.80;;;;;;5033411;28;20116;-22
2022/03/13 07:42:27;;;;;;;20.75;10.73;;;2.40;46.50;;;;;;5032989;28;20017;-22
2022/03/13 07:44:53;;;;;;;16.63;8.35;;;2.60;46.80;;;;;;5033441;28;20026;-21
2022/03/13 07:47:19;;;;;;;20.85;11.32;;;2.70;46.90;;;;;;5033280;28;20040;-22
2022/03/13 07:49:45;;;;;;;12.77;7.15;;;2.90;46.80;;;;;;5033367;28;20029;-22
2022/03/13 07:52:11;;;;;;;25.73;12.65;;;3.10;46.40;;;;;;5033076;28;20029;-22
2022/03/13 07:54:37;;;;;;;12.65;6.75;;;3.20;46.30;;;;;;5033332;28;20060;-22
2022/03/13 07:57:03;;;;;;;21.92;11.27;;;3.40;46.00;;;;;;5033286;28;20108;-23
2022/03/13 07:59:29;;;;;;;19.58;11.95;;;3.60;46.00;;;;;;5033025;28;20040;-21
2022/03/13 08:01:55;;;;;;;13.20;7.13;;;3.70;46.70;;;;;;5033250;28;20021;-21
2022/03/13 08:04:21;;;;;;;18.52;8.68;;;3.90;46.20;;;;;;5033069;28;20025;-23
2022/03/13 08:06:48;;;;;;;13.77;7.78;;;4.10;46.20;;;;;;5033178;28;20393;-22
2022/03/13 08:09:15;;;;;;;17.30;8.15;;;4.40;46.10;;;;;;5032828;28;20040;-21
2022/03/13 08:11:42;;;;;;;12.68;6.88;;;4.50;45.70;;;;;;5032923;28;20120;-21
2022/03/13 08:14:08;;;;;;;11.07;6.55;;;4.80;46.00;;;;;;5033075;28;20404;-22
2022/03/13 08:16:35;;;;;;;20.17;10.75;;;5.00;45.10;;;;;;5032741;28;20035;-23
2022/03/13 08:19:03;;;;;;;15.45;8.40;;;5.30;45.40;;;;;;5032462;28;20060;-20
2022/03/13 08:21:29;;;;;;;14.85;7.47;;;5.50;44.70;;;;;;5032829;28;20041;-21
2022/03/13 08:23:55;;;;;;;17.23;9.30;;;5.80;44.40;;;;;;5035713;28;20026;-23
2022/03/13 08:26:21;;;;;;;19.27;12.38;;;6.00;44.10;;;;;;5036531;28;20025;-22
2022/03/13 08:28:47;;;;;;;21.02;11.93;;;6.30;43.80;;;;;;5036522;28;20075;-21
2022/03/13 08:31:13;;;;;;;16.85;9.23;;;6.60;43.30;;;;;;5037067;28;20025;-21
2022/03/13 08:33:43;;;;;;;24.67;13.48;;;6.90;42.80;;;;;;5036915;28;20057;-20
2022/03/13 08:36:09;;;;;;;16.77;9.02;;;7.10;42.50;;;;;;5036553;28;20465;-23
2022/03/13 08:38:35;;;;;;;23.25;12.90;;;7.40;42.10;;;;;;5036294;28;20478;-21
2022/03/13 08:41:01;;;;;;;13.73;7.30;;;7.60;41.40;;;;;;5036441;28;20037;-20
2022/03/13 08:43:27;;;;;;;18.08;8.95;;;7.90;41.30;;;;;;5036484;28;20036;-23
2022/03/13 08:45:53;;;;;;;22.75;12.27;;;8.20;41.10;;;;;;5036971;28;20026;-23
2022/03/13 08:48:19;;;;;;;18.38;10.65;;;8.50;40.50;;;;;;5036013;28;20029;-22
2022/03/13 08:50:45;;;;;;;18.33;10.55;;;8.80;40.40;;;;;;5036199;28;20067;-21
2022/03/13 08:53:12;;;;;;;16.55;9.32;;;9.00;39.60;;;;;;5036602;28;20038;-21
2022/03/13 08:55:38;;;;;;;17.83;10.60;;;9.30;38.80;;;;;;5036189;28;20079;-22
2022/03/13 08:58:04;;;;;;;20.23;10.43;;;9.60;38.90;;;;;;5036364;28;20025;-21
2022/03/13 09:00:32;;;;;;;13.35;7.93;;;9.90;38.30;;;;;;5035982;28;20025;-21
2022/03/13 09:02:58;;;;;;;14.25;7.57;;;10.10;38.20;;;;;;5036072;28;20029;-21
2022/03/13 09:05:24;;;;;;;15.85;9.02;;;10.40;37.80;;;;;;5036024;28;20075;-20
2022/03/13 09:07:50;;;;;;;23.30;12.20;;;10.70;37.60;;;;;;5036473;28;20025;-22
2022/03/13 09:10:16;;;;;;;23.10;14.07;;;11.00;36.70;;;;;;5034824;28;20112;-22
2022/03/13 09:12:42;;;;;;;17.35;10.55;;;11.30;35.30;;;;;;5036227;28;20033;-21
2022/03/13 09:15:09;;;;;;;16.90;9.93;;;11.50;36.00;;;;;;5036181;28;20063;-21
2022/03/13 09:17:36;;;;;;;13.40;8.02;;;11.70;34.50;;;;;;5036088;28;20105;-23
2022/03/13 09:20:04;;;;;;;14.00;7.60;;;11.90;35.10;;;;;;5035478;28;20051;-21
2022/03/13 09:22:30;;;;;;;18.13;9.93;;;12.10;34.90;;;;;;5035703;28;20496;-21
2022/03/13 09:25:00;;;;;;;10.57;6.18;;;12.30;34.80;;;;;;5035647;28;20033;-21
2022/03/13 09:27:30;;;;;;;11.50;6.72;;;12.50;35.30;;;;;;5035730;28;20026;-22
2022/03/13 09:29:57;;;;;;;10.90;6.13;;;12.80;34.70;;;;;;5035675;28;20172;-22
2022/03/13 09:32:25;;;;;;;10.10;5.97;;;13.00;34.70;;;;;;5035275;28;20497;-22
2022/03/13 09:34:52;;;;;;;12.30;6.63;;;13.20;34.70;;;;;;5035444;28;20030;-21
2022/03/13 09:37:18;;;;;;;11.05;7.20;;;13.50;34.10;;;;;;5035666;28;20087;-21
2022/03/13 09:39:45;;;;;;;10.10;5.18;;;13.80;34.50;;;;;;5035529;28;20025;-23
2022/03/13 09:42:11;;;;;;;12.77;7.22;;;14.00;34.20;;;;;;5035300;28;20022;-22
2022/03/13 09:44:37;;;;;;;12.15;7.25;;;14.20;33.30;;;;;;5034081;28;20033;-22
2022/03/13 09:47:05;;;;;;;12.50;6.95;;;14.40;32.50;;;;;;5035440;28;20028;-21
2022/03/13 09:49:32;;;;;;;9.82;5.50;;;14.60;32.50;;;;;;5035217;28;20489;-21
2022/03/13 09:51:59;;;;;;;10.80;6.43;;;14.80;32.10;;;;;;5035467;28;20029;-23
2022/03/13 09:54:25;;;;;;;13.77;7.90;;;14.90;32.00;;;;;;5034879;28;20031;-21
2022/03/13 09:56:52;;;;;;;8.93;5.10;;;15.10;30.30;;;;;;5035349;28;20473;-21
2022/03/13 09:59:18;;;;;;;8.48;4.68;;;15.20;31.30;;;;;;5034917;28;20560;-20
2022/03/13 10:01:44;;;;;;;11.00;6.80;;;15.40;31.60;;;;;;5035290;28;20017;-21
2022/03/13 10:04:12;;;;;;;11.18;6.70;;;15.70;30.80;;;;;;5035260;28;20025;-22
2022/03/13 10:07:01;;;;;;;9.98;6.10;;;15.90;30.50;;;;;;5035180;28;20048;-22
2022/03/13 10:09:28;;;;;;;12.02;6.85;;;16.10;29.70;;;;;;5035005;28;20069;-21
2022/03/13 10:12:08;;;;;;;11.48;6.53;;;16.20;30.10;;;;;;5034798;28;20045;-21
2022/03/13 10:14:53;;;;;;;11.10;6.82;;;16.40;30.20;;;;;;5034833;28;20021;-21
2022/03/13 10:17:33;;;;;;;11.05;6.53;;;16.50;29.20;;;;;;5034699;28;20029;-21
2022/03/13 10:20:26;;;;;;;9.02;5.70;;;16.60;29.10;;;;;;5034411;28;20085;-21
2022/03/13 10:23:19;;;;;;;12.45;7.43;;;16.80;27.80;;;;;;5034640;28;20017;-21
2022/03/13 10:25:52;;;;;;;11.37;7.20;;;16.90;27.80;;;;;;5034547;28;20034;-21
2022/03/13 10:28:17;;;;;;;10.40;5.97;;;17.00;28.30;;;;;;5034559;28;20041;-21
2022/03/13 10:30:47;;;;;;;9.55;5.22;;;17.00;28.50;;;;;;5034672;28;20439;-21
2022/03/13 10:33:13;;;;;;;9.02;5.45;;;17.10;28.90;;;;;;5034359;28;20030;-21
2022/03/13 10:35:40;;;;;;;9.68;5.72;;;17.40;29.10;;;;;;5034362;28;20018;-21
2022/03/13 10:38:20;;;;;;;8.88;5.45;;;17.50;28.50;;;;;;5034583;28;20017;-21
2022/03/13 10:40:56;;;;;;;10.55;5.63;;;17.70;28.70;;;;;;5034542;28;20053;-20
2022/03/13 10:43:26;;;;;;;8.48;5.47;;;17.90;29.00;;;;;;5034432;28;20025;-20
2022/03/13 10:45:54;;;;;;;8.88;5.07;;;18.30;28.60;;;;;;5033683;28;20056;-23
2022/03/13 10:48:32;;;;;;;9.73;5.60;;;18.60;28.60;;;;;;5034029;28;20037;-22
2022/03/13 10:51:00;;;;;;;8.48;5.57;;;18.90;27.30;;;;;;5034410;28;20025;-22
2022/03/13 10:53:30;;;;;;;7.93;5.00;;;19.10;27.90;;;;;;5034243;28;20030;-22
2022/03/13 10:56:02;;;;;;;10.35;5.78;;;19.30;28.10;;;;;;5033965;28;20100;-21
2022/03/13 10:58:29;;;;;;;8.77;4.93;;;19.50;27.50;;;;;;5033649;28;20025;-22
2022/03/13 11:01:13;;;;;;;8.70;5.57;;;19.70;27.10;;;;;;5033816;28;20030;-21
2022/03/13 11:04:04;;;;;;;6.45;4.22;;;19.80;25.50;;;;;;5033846;28;20060;-20
2022/03/13 11:06:30;;;;;;;5.70;3.83;;;20.00;26.50;;;;;;5033602;28;20440;-21
2022/03/13 11:08:56;;;;;;;8.20;5.22;;;20.20;27.50;;;;;;5033606;28;20037;-21
2022/03/13 11:11:25;;;;;;;9.88;6.18;;;20.50;27.60;;;;;;5033834;28;20029;-21
2022/03/13 11:13:54;;;;;;;10.10;5.65;;;20.70;26.90;;;;;;5033492;28;20052;-21
2022/03/13 11:16:28;;;;;;;10.00;6.53;;;21.00;26.50;;;;;;5033447;28;20018;-20
2022/03/13 11:18:57;;;;;;;9.30;5.97;;;20.90;25.10;;;;;;5033613;28;20051;-21
2022/03/13 11:21:25;;;;;;;9.88;6.82;;;20.90;25.50;;;;;;5033542;28;20073;-20
2022/03/13 11:23:52;;;;;;;10.52;6.95;;;21.10;25.50;;;;;;5034317;28;20029;-21
2022/03/13 11:26:22;;;;;;;10.55;6.85;;;21.20;25.50;;;;;;5033582;28;20027;-21
2022/03/13 11:28:50;;;;;;;10.25;6.50;;;21.30;25.90;;;;;;5033357;28;20037;-21
2022/03/13 11:31:35;;;;;;;6.95;4.50;;;21.30;25.60;;;;;;5033333;28;20075;-21
2022/03/13 11:34:14;;;;;;;8.98;5.68;;;21.50;25.80;;;;;;5033811;28;20030;-21
2022/03/13 11:36:42;;;;;;;9.48;6.30;;;21.70;24.60;;;;;;5033331;28;20497;-21
2022/03/13 11:39:10;;;;;;;8.68;5.63;;;21.90;25.40;;;;;;5033287;28;20033;-22
2022/03/13 11:41:36;;;;;;;9.02;5.03;;;21.90;25.10;;;;;;5033583;28;20070;-21
2022/03/13 11:44:25;;;;;;;9.52;5.35;;;22.10;25.60;;;;;;5033425;28;20124;-21
2022/03/13 11:46:53;;;;;;;7.47;5.60;;;22.30;25.60;;;;;;5032544;28;20116;-22
2022/03/13 11:49:31;;;;;;;10.80;6.53;;;22.40;25.20;;;;;;5032993;28;20443;-21
2022/03/13 11:52:17;;;;;;;8.85;6.30;;;22.60;23.10;;;;;;5033068;28;20539;-21
2022/03/13 11:55:04;;;;;;;9.23;5.88;;;22.80;22.80;;;;;;5033087;28;20497;-21
2022/03/13 11:57:50;;;;;;;10.15;5.85;;;22.90;24.60;;;;;;5032916;28;20033;-21
2022/03/13 12:00:16;;;;;;;8.70;5.97;;;23.00;22.60;;;;;;5032892;28;20065;-21
2022/03/13 12:02:46;;;;;;;8.23;5.78;;;23.10;24.50;;;;;;5033614;28;20053;-21
2022/03/13 12:05:29;;;;;;;9.98;6.57;;;23.20;24.70;;;;;;5032936;28;20059;-21
2022/03/13 12:07:56;;;;;;;9.63;6.80;;;23.20;21.90;;;;;;5032844;28;20032;-21
2022/03/13 12:10:48;;;;;;;8.45;5.10;;;23.30;24.50;;;;;;5032685;28;20129;-20
2022/03/13 12:13:20;;;;;;;10.75;6.65;;;23.40;23.10;;;;;;5032924;28;20037;-20
2022/03/13 12:15:47;;;;;;;12.18;7.68;;;23.50;24.20;;;;;;5033029;28;20486;-21
2022/03/13 12:18:27;;;;;;;10.85;6.03;;;23.50;24.20;;;;;;5032699;28;20024;-21
2022/03/13 12:21:08;;;;;;;9.55;5.88;;;23.50;24.10;;;;;;5033115;28;20568;-21
2022/03/13 12:23:38;;;;;;;7.72;5.28;;;23.60;24.10;;;;;;5033168;28;20481;-20
2022/03/13 12:26:16;;;;;;;9.50;6.47;;;23.70;23.90;;;;;;5033109;28;20604;-21
2022/03/13 12:28:43;;;;;;;9.10;5.82;;;23.80;21.60;;;;;;5032621;28;20489;-21
2022/03/13 12:31:10;;;;;;;9.65;5.22;;;23.90;23.60;;;;;;5033046;28;20037;-21
2022/03/13 12:33:37;;;;;;;8.48;5.85;;;24.00;23.50;;;;;;5033262;28;20079;-21
2022/03/13 12:36:04;;;;;;;9.85;6.43;;;24.20;23.40;;;;;;5033137;28;20018;-21
2022/03/13 12:38:32;;;;;;;8.82;5.75;;;24.20;23.00;;;;;;5032531;28;20025;-21
2022/03/13 12:41:02;;;;;;;8.27;5.10;;;24.30;23.00;;;;;;5032981;28;20087;-21
2022/03/13 12:43:48;;;;;;;9.25;6.03;;;24.50;23.20;;;;;;5033130;28;20088;-21